Time;durP1;ratioP1;P1;durP2;ratioP2;P2;SDS_P1;SDS_P2;PMS_P1;PMS_P2;Temp;Humidity;BMP_temperature;BMP_pressure;BME280_temperature;BME280_humidity;BME280_pressure;Samples;Min_cycle;Max_cycle;Signal;HPM_P1;HPM_P2
2022/03/10 00:02:14;;;;;;;21.05;16.35;;;4.80;64.80;;;;;;6182190;23;20047;-75
2022/03/10 00:04:40;;;;;;;23.65;16.20;;;4.80;64.30;;;;;;6184798;23;20086;-75
2022/03/10 00:07:06;;;;;;;20.77;15.35;;;4.80;64.40;;;;;;6210031;23;20020;-75
2022/03/10 00:09:32;;;;;;;19.83;15.35;;;4.80;64.30;;;;;;6183803;23;20020;-75
2022/03/10 00:11:59;;;;;;;21.20;16.03;;;4.80;64.40;;;;;;6211346;23;20012;-75
2022/03/10 00:14:25;;;;;;;22.93;16.90;;;4.80;64.40;;;;;;6212434;23;20043;-75
2022/03/10 00:16:51;;;;;;;20.35;16.55;;;4.80;64.60;;;;;;6182705;23;20017;-74
2022/03/10 00:19:16;;;;;;;22.85;16.58;;;4.80;64.50;;;;;;6184164;23;20078;-75
2022/03/10 00:21:47;;;;;;;19.77;16.25;;;4.80;64.60;;;;;;6211098;23;20554;-75
2022/03/10 00:24:14;;;;;;;21.73;16.70;;;4.80;64.60;;;;;;6184179;23;20059;-75
2022/03/10 00:26:41;;;;;;;22.80;18.05;;;4.80;64.40;;;;;;6211482;23;20021;-75
2022/03/10 00:29:07;;;;;;;19.85;16.23;;;4.80;64.30;;;;;;6186375;23;20039;-75
2022/03/10 00:31:33;;;;;;;22.27;16.77;;;4.80;64.50;;;;;;6209271;23;20016;-75
2022/03/10 00:33:58;;;;;;;22.63;17.02;;;4.80;64.50;;;;;;6182014;23;20034;-75
2022/03/10 00:36:24;;;;;;;21.52;16.77;;;4.80;64.50;;;;;;6209457;23;20467;-75
2022/03/10 00:38:50;;;;;;;21.30;16.75;;;4.80;64.50;;;;;;6184227;23;20017;-75
2022/03/10 00:41:17;;;;;;;19.55;17.15;;;4.80;64.70;;;;;;6185223;23;20020;-75
2022/03/10 00:43:42;;;;;;;21.58;16.83;;;4.70;64.90;;;;;;6210581;23;20109;-76
2022/03/10 00:46:08;;;;;;;20.80;16.77;;;4.60;64.90;;;;;;6209853;23;20028;-75
2022/03/10 00:48:34;;;;;;;23.73;17.42;;;4.60;64.80;;;;;;6211504;23;20092;-75
2022/03/10 00:50:59;;;;;;;23.70;17.45;;;4.60;64.80;;;;;;6181775;23;20471;-75
2022/03/10 00:53:25;;;;;;;21.33;17.30;;;4.60;65.50;;;;;;6183641;23;20021;-76
2022/03/10 00:55:51;;;;;;;20.95;17.25;;;4.60;64.90;;;;;;6210463;23;20031;-75
2022/03/10 00:58:16;;;;;;;21.00;17.15;;;4.60;64.90;;;;;;6211056;23;20021;-75
2022/03/10 01:00:42;;;;;;;21.08;16.85;;;4.60;64.80;;;;;;6210293;23;20019;-76
2022/03/10 01:03:08;;;;;;;20.30;16.77;;;4.60;64.80;;;;;;6184405;23;20021;-75
2022/03/10 01:05:34;;;;;;;21.00;16.58;;;4.60;64.70;;;;;;6208907;23;20024;-76
2022/03/10 01:08:00;;;;;;;22.27;17.25;;;4.60;64.60;;;;;;6184399;23;20052;-76
2022/03/10 01:10:27;;;;;;;21.30;17.55;;;4.60;64.40;;;;;;6211236;23;20020;-76
2022/03/10 01:12:52;;;;;;;24.08;17.35;;;4.50;64.50;;;;;;6209403;23;20048;-75
2022/03/10 01:15:26;;;;;;;21.67;16.55;;;4.50;64.40;;;;;;6208704;23;20380;-76
2022/03/10 01:17:52;;;;;;;22.50;16.90;;;4.50;64.60;;;;;;6183243;23;20025;-75
2022/03/10 01:20:19;;;;;;;22.83;16.52;;;4.50;64.50;;;;;;6183446;23;20162;-75
2022/03/10 01:22:45;;;;;;;20.98;17.20;;;4.50;65.20;;;;;;6183593;23;20052;-75
2022/03/10 01:25:11;;;;;;;23.15;17.33;;;4.40;65.00;;;;;;6183063;23;20372;-75
2022/03/10 01:27:38;;;;;;;22.00;16.75;;;4.40;65.20;;;;;;6184500;23;20020;-76
2022/03/10 01:30:05;;;;;;;20.45;16.67;;;4.40;65.40;;;;;;6183606;23;20324;-76
2022/03/10 01:32:31;;;;;;;28.98;16.92;;;4.30;65.70;;;;;;6183848;23;20019;-77
2022/03/10 01:34:56;;;;;;;21.10;16.70;;;4.30;65.80;;;;;;6209545;23;20028;-76
2022/03/10 01:37:22;;;;;;;23.48;17.35;;;4.30;66.20;;;;;;6183662;23;20013;-77
2022/03/10 01:39:47;;;;;;;20.40;16.75;;;4.20;66.70;;;;;;6183630;23;20028;-77
2022/03/10 01:42:13;;;;;;;22.33;17.45;;;4.20;66.80;;;;;;6184361;23;20063;-76
2022/03/10 01:44:39;;;;;;;24.80;17.60;;;4.10;67.70;;;;;;6184032;23;20078;-76
2022/03/10 01:47:05;;;;;;;20.58;17.83;;;4.10;68.00;;;;;;6181819;23;20020;-76
2022/03/10 01:49:33;;;;;;;24.80;18.08;;;4.10;68.40;;;;;;6210857;23;20095;-76
2022/03/10 01:51:59;;;;;;;22.95;17.30;;;4.00;68.10;;;;;;6183516;23;20967;-76
2022/03/10 01:54:25;;;;;;;25.35;17.63;;;4.00;68.30;;;;;;6209619;23;20024;-76
2022/03/10 01:56:52;;;;;;;21.80;17.40;;;4.00;68.10;;;;;;6208789;23;20020;-76
2022/03/10 01:59:18;;;;;;;20.13;17.48;;;4.00;68.20;;;;;;6184364;23;20030;-75
2022/03/10 02:01:45;;;;;;;26.02;16.90;;;4.00;68.10;;;;;;6180823;23;20024;-76
2022/03/10 02:04:11;;;;;;;20.52;16.95;;;4.00;67.80;;;;;;6210574;23;20540;-76
2022/03/10 02:06:37;;;;;;;21.85;16.52;;;4.00;67.70;;;;;;6183575;23;20024;-76
2022/03/10 02:11:51;;;;;;;23.10;17.05;;;4.00;67.50;;;;;;6210361;23;20147;-76
2022/03/10 02:17:19;;;;;;;21.50;15.40;;;3.90;67.60;;;;;;6182892;23;20017;-76
2022/03/10 02:19:46;;;;;;;21.30;16.80;;;3.90;67.40;;;;;;6186632;23;20016;-76
2022/03/10 02:22:14;;;;;;;20.87;16.23;;;4.00;67.30;;;;;;6182752;23;20013;-76
2022/03/10 02:24:40;;;;;;;;;;;4.00;66.90;;;;;;6211489;23;20096;-76
2022/03/10 02:27:23;;;;;;;19.55;15.77;;;3.90;67.20;;;;;;6182286;23;19927;-76
2022/03/10 02:29:51;;;;;;;21.10;14.85;;;4.00;67.30;;;;;;6209487;23;20066;-76
2022/03/10 02:32:17;;;;;;;21.42;15.30;;;3.90;67.10;;;;;;6183766;23;20008;-76
2022/03/10 02:34:44;;;;;;;19.77;15.07;;;3.90;67.10;;;;;;6209495;23;20511;-76
2022/03/10 02:37:10;;;;;;;19.40;15.93;;;4.00;67.10;;;;;;6182062;23;20025;-76
2022/03/10 02:39:37;;;;;;;20.35;14.95;;;3.90;67.00;;;;;;6209874;23;20096;-76
2022/03/10 02:42:03;;;;;;;21.25;15.70;;;4.00;67.10;;;;;;6182813;23;20020;-76
2022/03/10 02:44:29;;;;;;;19.38;15.85;;;4.00;66.80;;;;;;6182734;23;20047;-76
2022/03/10 02:46:55;;;;;;;19.42;15.20;;;3.90;66.70;;;;;;6182451;23;20377;-76
2022/03/10 02:49:21;;;;;;;20.13;16.38;;;4.00;66.70;;;;;;6209458;23;20453;-76
2022/03/10 02:51:47;;;;;;;18.75;15.57;;;3.90;66.70;;;;;;6208260;23;20045;-76
2022/03/10 02:54:12;;;;;;;18.67;15.50;;;4.00;66.90;;;;;;6183804;23;20024;-75
2022/03/10 02:56:38;;;;;;;20.55;16.42;;;3.90;67.10;;;;;;6207704;23;20029;-76
2022/03/10 02:59:04;;;;;;;19.52;15.43;;;3.90;67.40;;;;;;6208885;23;20024;-76
2022/03/10 03:01:30;;;;;;;21.13;15.80;;;3.90;67.40;;;;;;6183611;23;20488;-76
2022/03/10 03:03:56;;;;;;;20.05;15.10;;;3.80;67.40;;;;;;6208159;23;20028;-76
2022/03/10 03:06:22;;;;;;;18.52;15.13;;;3.80;67.50;;;;;;6209794;23;20013;-76
2022/03/10 03:08:48;;;;;;;19.67;15.82;;;3.80;67.50;;;;;;6183709;23;20017;-76
2022/03/10 03:11:14;;;;;;;19.05;15.05;;;3.80;67.50;;;;;;6209320;23;20332;-76
2022/03/10 03:13:40;;;;;;;19.35;15.85;;;3.70;67.60;;;;;;6183265;23;20059;-76
2022/03/10 03:16:06;;;;;;;20.90;16.15;;;3.70;67.80;;;;;;6182444;23;20016;-76
2022/03/10 03:18:31;;;;;;;19.00;15.90;;;3.70;68.00;;;;;;6208530;23;20026;-76
2022/03/10 03:20:57;;;;;;;18.50;14.90;;;3.60;68.20;;;;;;6181686;23;20051;-76
2022/03/10 03:23:25;;;;;;;20.75;16.00;;;3.50;68.40;;;;;;6183900;23;20017;-76
2022/03/10 03:25:52;;;;;;;18.00;15.70;;;3.40;69.10;;;;;;6208217;23;20401;-76
2022/03/10 03:28:20;;;;;;;18.95;14.75;;;3.40;69.10;;;;;;6210273;23;20045;-76
2022/03/10 03:30:45;;;;;;;22.63;16.42;;;3.30;69.20;;;;;;6209871;23;20111;-76
2022/03/10 03:33:11;;;;;;;20.58;15.73;;;3.30;69.50;;;;;;6209511;23;20036;-76
2022/03/10 03:35:36;;;;;;;21.48;16.38;;;3.30;70.10;;;;;;6208907;23;20017;-76
2022/03/10 03:38:02;;;;;;;19.15;15.18;;;3.30;70.40;;;;;;6209206;23;20391;-76
2022/03/10 03:40:28;;;;;;;19.70;15.80;;;3.20;71.50;;;;;;6209719;23;20083;-76
2022/03/10 03:42:53;;;;;;;21.30;15.95;;;3.20;71.60;;;;;;6208992;23;20024;-76
2022/03/10 03:45:19;;;;;;;21.88;15.63;;;3.20;71.60;;;;;;6209765;23;20031;-76
2022/03/10 03:47:45;;;;;;;21.25;17.30;;;3.10;71.40;;;;;;6181577;23;20020;-76
2022/03/10 03:50:12;;;;;;;22.33;15.98;;;3.10;72.70;;;;;;6183226;23;20306;-76
2022/03/10 03:52:37;;;;;;;20.67;17.13;;;3.10;73.30;;;;;;6210065;23;20039;-76
2022/03/10 03:55:03;;;;;;;24.75;16.30;;;3.00;74.10;;;;;;6208520;23;20555;-76
2022/03/10 03:57:29;;;;;;;21.55;15.73;;;2.90;74.30;;;;;;6182386;23;20117;-76
2022/03/10 03:59:55;;;;;;;17.95;15.35;;;2.80;75.20;;;;;;6207261;23;20016;-76
2022/03/10 04:02:20;;;;;;;20.05;16.35;;;2.70;76.50;;;;;;6209836;23;20042;-76
2022/03/10 04:04:46;;;;;;;21.23;16.20;;;2.70;78.00;;;;;;6183021;23;20028;-76
2022/03/10 04:07:12;;;;;;;23.23;16.05;;;2.60;79.00;;;;;;6209207;23;20027;-75
2022/03/10 04:09:37;;;;;;;20.05;15.88;;;2.50;80.50;;;;;;6213406;23;20432;-76
2022/03/10 04:12:03;;;;;;;19.48;16.13;;;2.50;81.10;;;;;;6209946;23;20416;-76
2022/03/10 04:14:29;;;;;;;21.27;15.43;;;2.40;81.90;;;;;;6209071;23;20087;-75
2022/03/10 04:16:55;;;;;;;20.75;15.75;;;2.40;82.60;;;;;;6182376;23;20021;-75
2022/03/10 04:19:20;;;;;;;23.88;16.55;;;2.40;82.70;;;;;;6209556;23;20020;-76
2022/03/10 04:21:46;;;;;;;21.30;16.25;;;2.30;82.30;;;;;;6181310;23;20048;-76
2022/03/10 04:24:12;;;;;;;23.02;16.20;;;2.20;82.50;;;;;;6209318;23;20445;-76
2022/03/10 04:26:39;;;;;;;20.00;16.05;;;2.20;83.80;;;;;;6185012;23;20017;-75
2022/03/10 04:29:04;;;;;;;20.23;15.95;;;2.10;85.10;;;;;;6210233;23;20009;-76
2022/03/10 04:31:30;;;;;;;23.70;15.23;;;2.10;86.90;;;;;;6185662;23;20047;-76
2022/03/10 04:33:56;;;;;;;21.15;15.93;;;2.00;88.00;;;;;;6209317;23;20013;-75
2022/03/10 04:36:22;;;;;;;20.13;15.02;;;2.00;88.50;;;;;;6210564;23;20016;-76
2022/03/10 04:38:48;;;;;;;20.88;15.05;;;2.00;88.90;;;;;;6210775;23;20016;-76
2022/03/10 04:41:13;;;;;;;22.88;16.25;;;1.90;89.30;;;;;;6212229;23;20507;-76
2022/03/10 04:43:39;;;;;;;21.58;16.23;;;1.90;89.70;;;;;;6184504;23;20449;-76
2022/03/10 04:46:06;;;;;;;23.10;16.00;;;1.90;89.70;;;;;;6210045;23;20453;-76
2022/03/10 04:48:32;;;;;;;22.77;15.98;;;1.90;90.00;;;;;;6183898;23;20017;-75
2022/03/10 04:50:57;;;;;;;20.23;15.95;;;1.90;90.40;;;;;;6182735;23;20095;-76
2022/03/10 04:53:23;;;;;;;20.95;16.30;;;1.80;90.30;;;;;;6212175;23;20092;-75
2022/03/10 04:55:48;;;;;;;21.80;16.48;;;1.80;90.40;;;;;;6210816;23;20087;-76
2022/03/10 04:58:14;;;;;;;19.77;16.00;;;1.80;90.80;;;;;;6183139;23;20079;-76
2022/03/10 05:00:40;;;;;;;23.38;15.88;;;1.80;90.70;;;;;;6207337;23;20571;-76
2022/03/10 05:03:05;;;;;;;23.60;15.82;;;1.80;90.70;;;;;;6183273;23;20017;-76
2022/03/10 05:05:31;;;;;;;24.35;16.90;;;1.80;91.00;;;;;;6209684;23;20017;-75
2022/03/10 05:07:57;;;;;;;21.35;16.60;;;1.90;90.40;;;;;;6183893;23;20017;-76
2022/03/10 05:10:22;;;;;;;22.73;17.30;;;1.80;90.40;;;;;;6209676;23;20017;-76
2022/03/10 05:12:53;;;;;;;24.25;19.20;;;1.80;90.70;;;;;;6210122;23;20027;-75
2022/03/10 05:15:31;;;;;;;25.42;19.17;;;1.70;91.50;;;;;;6211963;23;20906;-75
2022/03/10 05:17:58;;;;;;;25.40;18.33;;;1.70;91.80;;;;;;6209566;23;20013;-75
2022/03/10 05:20:25;;;;;;;26.52;17.75;;;1.70;92.00;;;;;;6181504;23;20020;-75
2022/03/10 05:23:02;;;;;;;32.25;19.05;;;1.60;92.30;;;;;;6182876;23;20044;-76
2022/03/10 05:25:39;;;;;;;24.52;17.35;;;1.60;93.70;;;;;;6210831;23;20663;-76
2022/03/10 05:28:07;;;;;;;24.65;17.92;;;1.60;93.20;;;;;;6184538;23;20265;-76
2022/03/10 05:30:33;;;;;;;26.52;16.55;;;1.60;93.00;;;;;;6182928;23;20348;-76
2022/03/10 05:32:59;;;;;;;22.30;16.88;;;1.60;92.50;;;;;;6182925;23;20024;-75
2022/03/10 05:35:29;;;;;;;27.00;18.60;;;1.60;92.70;;;;;;6209508;23;20012;-74
2022/03/10 05:37:54;;;;;;;24.60;17.45;;;1.50;93.00;;;;;;6209383;23;20046;-75
2022/03/10 05:40:21;;;;;;;21.45;17.83;;;1.50;93.30;;;;;;6183342;23;20095;-75
2022/03/10 05:42:48;;;;;;;23.33;17.05;;;1.50;93.70;;;;;;6183469;23;20016;-74
2022/03/10 05:45:14;;;;;;;23.52;18.15;;;1.40;94.30;;;;;;6210740;23;20499;-77
2022/03/10 05:47:41;;;;;;;23.00;16.98;;;1.40;94.50;;;;;;6183356;23;20330;-76
2022/03/10 05:50:08;;;;;;;26.50;18.33;;;1.30;95.10;;;;;;6182878;23;20017;-77
2022/03/10 05:52:34;;;;;;;24.48;17.33;;;1.30;95.40;;;;;;6183430;23;20020;-76
2022/03/10 05:54:59;;;;;;;23.70;17.52;;;1.30;95.60;;;;;;6208839;23;20024;-76
2022/03/10 05:57:25;;;;;;;34.75;16.70;;;1.30;95.20;;;;;;6184444;23;20027;-76
2022/03/10 05:59:50;;;;;;;23.45;16.50;;;1.30;95.50;;;;;;6211460;23;20326;-76
2022/03/10 06:02:17;;;;;;;22.90;17.38;;;1.30;95.10;;;;;;6184885;23;20020;-76
2022/03/10 06:04:43;;;;;;;24.50;17.30;;;1.30;95.20;;;;;;6183057;23;20012;-76
2022/03/10 06:07:09;;;;;;;23.40;16.50;;;1.40;94.80;;;;;;6209503;23;20025;-76
2022/03/10 06:09:34;;;;;;;23.00;16.85;;;1.40;94.90;;;;;;6211127;23;20502;-76
2022/03/10 06:12:01;;;;;;;37.70;19.20;;;1.50;94.90;;;;;;6181987;23;20024;-76
2022/03/10 06:14:26;;;;;;;27.60;17.40;;;1.60;94.70;;;;;;6209437;23;20079;-75
2022/03/10 06:16:52;;;;;;;24.58;17.92;;;1.70;94.30;;;;;;6183614;23;20462;-76
2022/03/10 06:19:18;;;;;;;25.88;17.83;;;1.80;93.80;;;;;;6210404;23;20456;-76
2022/03/10 06:21:44;;;;;;;27.70;18.58;;;1.90;93.30;;;;;;6209646;23;20017;-76
2022/03/10 06:24:10;;;;;;;25.60;17.85;;;1.90;92.80;;;;;;6183550;23;20610;-77
2022/03/10 06:26:38;;;;;;;25.20;18.52;;;2.00;92.80;;;;;;6184391;23;20021;-77
2022/03/10 06:29:04;;;;;;;23.27;17.45;;;2.00;92.60;;;;;;6181440;23;20075;-76
2022/03/10 06:31:31;;;;;;;25.45;17.75;;;2.10;92.30;;;;;;6183771;23;20048;-76
2022/03/10 06:33:57;;;;;;;24.80;17.67;;;2.10;92.20;;;;;;6209273;23;20023;-76
2022/03/10 06:36:23;;;;;;;28.63;19.13;;;2.10;92.80;;;;;;6181376;23;20044;-77
2022/03/10 06:38:49;;;;;;;25.05;18.58;;;2.10;92.60;;;;;;6209552;23;20063;-76
2022/03/10 06:41:14;;;;;;;24.92;18.17;;;2.10;92.80;;;;;;6210903;23;20084;-77
2022/03/10 06:43:40;;;;;;;27.38;18.42;;;2.10;93.00;;;;;;6209447;23;20127;-77
2022/03/10 06:46:06;;;;;;;27.00;19.65;;;2.10;92.90;;;;;;6181599;23;20549;-77
2022/03/10 06:48:32;;;;;;;23.42;17.77;;;2.10;93.10;;;;;;6210995;23;20051;-77
2022/03/10 06:50:57;;;;;;;23.60;17.83;;;2.20;93.10;;;;;;6180883;23;20016;-75
2022/03/10 06:53:23;;;;;;;27.30;18.65;;;2.20;93.40;;;;;;6210406;23;20017;-75
2022/03/10 06:55:48;;;;;;;24.25;18.73;;;2.30;93.40;;;;;;6209327;23;20385;-75
2022/03/10 06:58:14;;;;;;;27.02;17.70;;;2.40;93.10;;;;;;6183649;23;20095;-75
2022/03/10 07:00:42;;;;;;;26.83;17.33;;;2.50;92.70;;;;;;6209393;23;20023;-77
2022/03/10 07:03:08;;;;;;;24.45;17.33;;;2.60;92.20;;;;;;6182053;23;20107;-76
2022/03/10 07:05:34;;;;;;;23.77;17.77;;;2.70;91.70;;;;;;6207346;23;20102;-77
2022/03/10 07:07:59;;;;;;;23.30;18.95;;;2.80;91.40;;;;;;6180337;23;20490;-77
2022/03/10 07:10:25;;;;;;;21.38;16.77;;;2.80;91.80;;;;;;6207732;23;20013;-77
2022/03/10 07:12:51;;;;;;;24.20;17.42;;;2.90;91.30;;;;;;6207925;23;20015;-76
2022/03/10 07:15:16;;;;;;;23.75;18.92;;;3.10;90.60;;;;;;6183156;23;20400;-76
2022/03/10 07:17:42;;;;;;;25.30;17.77;;;3.20;90.50;;;;;;6181634;23;20020;-77
2022/03/10 07:20:09;;;;;;;23.00;19.73;;;3.20;90.30;;;;;;6180814;23;20043;-76
2022/03/10 07:22:35;;;;;;;23.75;19.25;;;3.30;90.30;;;;;;6209289;23;20139;-75
2022/03/10 07:25:01;;;;;;;26.58;18.92;;;3.40;90.20;;;;;;6180559;23;20032;-75
2022/03/10 07:27:27;;;;;;;22.80;19.67;;;3.50;90.10;;;;;;6210128;23;20020;-75
2022/03/10 07:29:53;;;;;;;26.85;19.00;;;3.60;90.10;;;;;;6179710;23;20043;-75
2022/03/10 07:32:18;;;;;;;22.08;17.50;;;3.70;89.30;;;;;;6181039;23;20017;-75
2022/03/10 07:34:48;;;;;;;25.55;18.48;;;3.80;88.00;;;;;;6182121;23;20020;-76
2022/03/10 07:37:17;;;;;;;24.23;19.02;;;3.80;87.10;;;;;;6182938;23;20025;-75
2022/03/10 07:39:43;;;;;;;23.10;17.83;;;4.00;86.00;;;;;;6181462;23;20017;-75
2022/03/10 07:42:09;;;;;;;22.20;18.88;;;4.10;85.10;;;;;;6182799;23;20326;-75
2022/03/10 07:44:34;;;;;;;24.30;19.85;;;4.10;85.50;;;;;;6209677;23;20075;-76
2022/03/10 07:47:00;;;;;;;23.88;19.48;;;4.20;84.40;;;;;;6179929;23;20028;-75
2022/03/10 07:49:25;;;;;;;26.00;19.00;;;4.30;83.50;;;;;;6183046;23;20345;-75
2022/03/10 07:51:51;;;;;;;24.35;19.30;;;4.40;82.90;;;;;;6185711;23;20020;-76
2022/03/10 07:54:17;;;;;;;30.58;19.30;;;4.40;83.10;;;;;;6208932;23;20020;-75
2022/03/10 07:56:42;;;;;;;24.05;18.73;;;4.50;82.60;;;;;;6182589;23;20021;-75
2022/03/10 07:59:08;;;;;;;23.05;19.45;;;4.60;83.50;;;;;;6208855;23;20027;-75
2022/03/10 08:01:34;;;;;;;22.67;19.38;;;4.70;82.90;;;;;;6211489;23;20013;-75
2022/03/10 08:04:00;;;;;;;25.05;19.27;;;4.80;82.20;;;;;;6159496;23;20481;-75
2022/03/10 08:06:27;;;;;;;24.08;18.88;;;4.80;80.50;;;;;;6209858;23;20100;-76
2022/03/10 08:08:53;;;;;;;22.83;18.02;;;4.90;80.20;;;;;;6184216;23;20229;-75
2022/03/10 08:11:19;;;;;;;22.88;18.75;;;5.00;79.60;;;;;;6184926;23;20388;-75
2022/03/10 08:13:45;;;;;;;24.70;17.48;;;5.10;79.20;;;;;;6183627;23;20023;-76
2022/03/10 08:16:10;;;;;;;23.15;18.40;;;5.10;79.60;;;;;;6211122;23;20056;-75
2022/03/10 08:18:36;;;;;;;22.15;17.77;;;5.20;78.80;;;;;;6211405;23;20020;-75
2022/03/10 08:21:02;;;;;;;22.38;17.73;;;5.30;78.50;;;;;;6182613;23;20671;-75
2022/03/10 08:23:29;;;;;;;21.27;17.40;;;5.40;78.20;;;;;;6212334;23;20017;-81
2022/03/10 08:25:55;;;;;;;21.88;18.70;;;5.50;77.80;;;;;;6210960;23;20392;-80
2022/03/10 08:28:21;;;;;;;21.67;17.97;;;5.50;76.90;;;;;;6212969;23;20028;-76
2022/03/10 08:30:47;;;;;;;24.67;18.67;;;5.60;76.00;;;;;;6185804;23;20019;-78
2022/03/10 08:33:13;;;;;;;24.48;17.80;;;5.70;75.80;;;;;;6214358;23;20163;-78
2022/03/10 08:35:38;;;;;;;23.65;17.67;;;5.80;75.90;;;;;;6212041;23;20314;-74
2022/03/10 08:38:04;;;;;;;23.88;17.52;;;5.80;74.80;;;;;;6187067;23;20024;-74
2022/03/10 08:40:30;;;;;;;25.02;18.13;;;5.90;75.00;;;;;;6213805;23;20016;-73
2022/03/10 08:42:55;;;;;;;22.92;17.75;;;6.00;75.40;;;;;;6211893;23;20017;-72
2022/03/10 08:45:25;;;;;;;22.58;18.35;;;6.10;75.40;;;;;;6212556;23;20104;-73
2022/03/10 08:47:51;;;;;;;23.40;16.98;;;6.10;74.50;;;;;;6185376;23;20319;-73
2022/03/10 08:50:17;;;;;;;24.30;17.88;;;6.20;73.20;;;;;;6186325;23;20508;-72
2022/03/10 08:52:43;;;;;;;23.48;17.83;;;6.30;72.60;;;;;;6214035;23;20048;-72
2022/03/10 08:55:10;;;;;;;20.23;16.88;;;6.40;72.30;;;;;;6214425;23;20040;-78
2022/03/10 08:57:36;;;;;;;20.05;17.17;;;6.40;72.30;;;;;;6213367;23;20027;-84
2022/03/10 09:00:04;;;;;;;25.25;17.48;;;6.50;71.80;;;;;;6186506;23;20016;-72
2022/03/10 09:02:30;;;;;;;21.42;17.23;;;6.60;71.70;;;;;;6186693;23;20512;-73
2022/03/10 09:04:56;;;;;;;21.20;17.13;;;6.70;71.30;;;;;;6186358;23;20016;-72
2022/03/10 09:07:22;;;;;;;20.75;16.35;;;6.70;70.60;;;;;;6213343;23;20071;-73
2022/03/10 09:09:47;;;;;;;21.98;17.35;;;6.80;70.70;;;;;;6211561;23;20096;-75
2022/03/10 09:12:13;;;;;;;23.27;17.38;;;6.90;69.60;;;;;;6213230;23;20343;-72
2022/03/10 09:14:38;;;;;;;20.00;16.40;;;7.00;69.40;;;;;;6213235;23;20020;-72
2022/03/10 09:17:05;;;;;;;23.00;16.27;;;7.10;69.50;;;;;;6211583;23;20013;-71
2022/03/10 09:19:30;;;;;;;21.08;16.90;;;7.20;68.60;;;;;;6186545;23;20017;-72
2022/03/10 09:21:56;;;;;;;22.90;17.30;;;7.30;67.50;;;;;;6212316;23;20042;-73
2022/03/10 09:24:22;;;;;;;23.50;16.98;;;7.30;67.10;;;;;;6185522;23;20023;-80
2022/03/10 09:26:48;;;;;;;24.88;16.92;;;7.50;66.80;;;;;;6212471;23;20309;-74
2022/03/10 09:29:14;;;;;;;20.20;16.13;;;7.50;66.70;;;;;;6213927;23;20020;-74
2022/03/10 09:31:39;;;;;;;21.25;16.70;;;7.60;66.60;;;;;;6186215;23;20016;-74
2022/03/10 09:34:05;;;;;;;21.20;16.77;;;7.70;65.80;;;;;;6213560;23;20091;-74
2022/03/10 09:36:31;;;;;;;21.58;17.50;;;7.80;65.30;;;;;;6187236;23;20440;-74
2022/03/10 09:38:57;;;;;;;21.25;16.48;;;7.90;65.20;;;;;;6184758;23;20016;-74
2022/03/10 09:41:22;;;;;;;22.52;17.50;;;7.90;65.20;;;;;;6187974;23;20020;-74
2022/03/10 09:43:51;;;;;;;20.30;16.52;;;8.00;64.90;;;;;;6216200;23;20016;-74
2022/03/10 09:46:16;;;;;;;20.08;16.38;;;8.10;64.80;;;;;;6212421;23;20100;-74
2022/03/10 09:48:42;;;;;;;22.85;16.23;;;8.20;64.50;;;;;;6186043;23;20048;-74
2022/03/10 09:51:09;;;;;;;22.65;16.15;;;8.30;64.30;;;;;;6211983;23;20025;-75
2022/03/10 09:53:35;;;;;;;22.30;16.42;;;8.40;64.30;;;;;;6210283;23;20013;-72
2022/03/10 09:56:02;;;;;;;22.17;16.17;;;8.50;63.80;;;;;;6184739;23;20016;-73
2022/03/10 09:58:29;;;;;;;20.23;15.23;;;8.60;63.40;;;;;;6212681;23;20016;-76
2022/03/10 10:01:00;;;;;;;21.00;15.80;;;8.60;63.00;;;;;;6210775;23;20051;-72
2022/03/10 10:03:25;;;;;;;20.10;16.17;;;8.70;62.90;;;;;;6212189;23;20255;-74
2022/03/10 10:05:58;;;;;;;21.45;15.30;;;8.90;62.40;;;;;;6181410;23;20032;-75
2022/03/10 10:08:24;;;;;;;18.02;14.55;;;9.00;62.20;;;;;;6207890;23;20044;-74
2022/03/10 10:10:53;;;;;;;18.00;14.25;;;9.10;61.00;;;;;;6205205;23;20020;-73
2022/03/10 10:13:43;;;;;;;21.48;15.13;;;9.20;60.10;;;;;;6210924;23;20020;-74
2022/03/10 10:16:14;;;;;;;21.83;15.80;;;9.30;58.90;;;;;;6183227;23;20357;-75
2022/03/10 10:18:41;;;;;;;18.35;14.60;;;9.40;59.10;;;;;;6184282;23;20452;-75
2022/03/10 10:21:14;;;;;;;19.00;15.02;;;9.50;59.20;;;;;;6210689;23;20017;-74
2022/03/10 10:23:40;;;;;;;18.40;14.85;;;9.60;59.20;;;;;;6209428;23;20016;-74
2022/03/10 10:26:12;;;;;;;17.20;14.90;;;9.70;58.50;;;;;;6180961;23;20457;-73
2022/03/10 10:28:42;;;;;;;20.15;14.63;;;9.80;58.20;;;;;;6209806;23;20066;-73
2022/03/10 10:31:21;;;;;;;21.40;15.05;;;9.90;57.00;;;;;;6212855;23;20020;-73
2022/03/10 10:34:02;;;;;;;20.52;14.75;;;10.00;56.30;;;;;;6211620;23;20099;-73
2022/03/10 10:36:29;;;;;;;18.05;14.70;;;10.10;55.00;;;;;;6212597;23;20016;-73
2022/03/10 10:38:56;;;;;;;19.50;14.53;;;10.10;54.90;;;;;;6210628;23;20071;-78
2022/03/10 10:41:23;;;;;;;19.38;16.55;;;10.20;54.40;;;;;;6209353;23;20441;-74
2022/03/10 10:43:52;;;;;;;20.40;16.50;;;10.30;54.20;;;;;;6185107;23;20055;-76
2022/03/10 10:46:44;;;;;;;19.77;15.05;;;10.40;53.80;;;;;;6183884;23;20013;-78
2022/03/10 10:49:18;;;;;;;20.55;16.13;;;10.50;54.10;;;;;;6211025;23;20020;-75
2022/03/10 10:51:50;;;;;;;18.88;15.15;;;10.60;54.10;;;;;;6185002;23;20478;-79
2022/03/10 10:54:21;;;;;;;19.58;15.10;;;10.60;53.80;;;;;;6210503;23;20087;-76
2022/03/10 10:56:51;;;;;;;20.20;16.33;;;10.70;53.90;;;;;;6210262;23;20020;-75
2022/03/10 10:59:30;;;;;;;19.88;15.52;;;10.80;54.00;;;;;;6211602;23;20099;-76
2022/03/10 11:02:10;;;;;;;19.13;15.82;;;10.80;53.70;;;;;;6209671;23;20020;-74
2022/03/10 11:04:43;;;;;;;21.52;16.92;;;10.90;53.50;;;;;;6185385;23;20017;-75
2022/03/10 11:07:09;;;;;;;22.65;16.80;;;11.00;53.20;;;;;;6185228;23;20021;-73
2022/03/10 11:09:36;;;;;;;20.42;16.80;;;11.10;52.60;;;;;;6211205;23;20444;-75
2022/03/10 11:12:02;;;;;;;20.23;16.27;;;11.20;52.20;;;;;;6183712;23;20316;-76
2022/03/10 11:14:28;;;;;;;19.08;15.90;;;11.30;52.00;;;;;;6185765;23;20019;-77
2022/03/10 11:16:55;;;;;;;22.52;15.43;;;11.30;51.80;;;;;;6210860;23;20058;-77
2022/03/10 11:19:25;;;;;;;20.70;16.40;;;11.40;51.70;;;;;;6211624;23;20021;-74
2022/03/10 11:22:15;;;;;;;21.38;16.15;;;11.50;51.50;;;;;;6211736;23;20035;-74
2022/03/10 11:25:03;;;;;;;21.38;15.68;;;11.60;50.00;;;;;;6210611;23;20074;-74
2022/03/10 11:27:39;;;;;;;21.23;15.88;;;11.60;50.10;;;;;;6211629;23;20453;-74
2022/03/10 11:30:06;;;;;;;21.45;16.67;;;11.70;49.10;;;;;;6210471;23;20020;-74
2022/03/10 11:32:32;;;;;;;27.45;16.95;;;11.70;49.40;;;;;;6212897;23;20040;-73
2022/03/10 11:35:00;;;;;;;19.70;15.70;;;11.80;49.70;;;;;;6185396;23;20154;-76
2022/03/10 11:37:41;;;;;;;21.45;16.15;;;11.90;48.80;;;;;;6184548;23;20025;-75
2022/03/10 11:40:10;;;;;;;19.85;15.23;;;12.00;48.30;;;;;;6184738;23;20074;-76
2022/03/10 11:42:36;;;;;;;20.52;16.55;;;12.00;48.80;;;;;;6211324;23;20039;-75
2022/03/10 11:45:17;;;;;;;24.40;16.63;;;12.10;48.20;;;;;;6210444;23;20777;-76
2022/03/10 11:47:44;;;;;;;22.45;15.85;;;12.20;47.50;;;;;;6211119;23;20025;-74
2022/03/10 11:50:24;;;;;;;20.70;17.03;;;12.20;47.70;;;;;;6212403;23;20013;-74
2022/03/10 11:53:12;;;;;;;21.88;16.05;;;12.40;47.90;;;;;;6183456;23;20023;-80
2022/03/10 11:55:51;;;;;;;20.50;16.05;;;12.40;47.70;;;;;;6211457;23;20056;-76
2022/03/10 11:58:18;;;;;;;25.33;16.50;;;12.50;48.10;;;;;;6210869;23;20099;-86
2022/03/10 12:00:44;;;;;;;21.55;16.25;;;12.60;48.60;;;;;;6185320;23;20328;-78
2022/03/10 12:03:17;;;;;;;20.98;15.52;;;12.60;48.20;;;;;;6211909;23;20048;-82
2022/03/10 12:05:57;;;;;;;21.50;14.75;;;12.70;48.00;;;;;;6210944;23;20009;-81
2022/03/10 12:08:31;;;;;;;20.60;14.25;;;12.70;49.50;;;;;;6209743;23;20021;-78
2022/03/10 12:10:58;;;;;;;20.05;15.18;;;12.80;51.50;;;;;;6211477;23;20021;-77
2022/03/10 12:13:31;;;;;;;23.10;15.63;;;12.90;51.60;;;;;;6211166;23;20020;-77
2022/03/10 12:15:58;;;;;;;19.30;14.82;;;13.00;50.90;;;;;;6184336;23;20020;-78
2022/03/10 12:18:40;;;;;;;19.60;15.35;;;13.10;51.10;;;;;;6184598;23;20024;-79
2022/03/10 12:21:21;;;;;;;21.77;16.08;;;13.20;51.20;;;;;;6210078;23;20020;-74
2022/03/10 12:23:55;;;;;;;22.77;16.45;;;13.30;50.10;;;;;;6184623;23;20021;-82
2022/03/10 12:26:25;;;;;;;22.25;16.58;;;13.30;50.30;;;;;;6184119;23;20059;-78
2022/03/10 12:28:54;;;;;;;21.83;16.10;;;13.40;49.70;;;;;;6184645;23;20017;-75
2022/03/10 12:31:22;;;;;;;21.55;15.75;;;13.50;49.70;;;;;;6211812;23;20009;-75
2022/03/10 12:33:50;;;;;;;22.02;16.40;;;13.50;49.90;;;;;;6209747;23;20366;-75
2022/03/10 12:36:31;;;;;;;22.65;16.25;;;13.50;49.60;;;;;;6185403;23;20123;-75
2022/03/10 12:38:59;;;;;;;22.48;16.13;;;13.70;48.90;;;;;;6183913;23;20067;-75
2022/03/10 12:41:34;;;;;;;21.85;16.52;;;13.70;49.00;;;;;;6184563;23;20020;-75
2022/03/10 12:44:02;;;;;;;24.73;16.15;;;13.80;48.50;;;;;;6209957;23;20017;-75